sensor_id;sensor_type;location;lat;lon;timestamp;P1;durP1;ratioP1;P2;durP2;ratioP2
11039;SDS011;5573;49.592;8.662;2023-10-31T00:01:42;99.90;;;94.82;;
11039;SDS011;5573;49.592;8.662;2023-10-31T00:04:10;94.13;;;89.28;;
11039;SDS011;5573;49.592;8.662;2023-10-31T00:06:38;94.38;;;89.57;;
11039;SDS011;5573;49.592;8.662;2023-10-31T00:09:06;98.05;;;93.10;;
11039;SDS011;5573;49.592;8.662;2023-10-31T00:11:33;90.95;;;86.35;;
11039;SDS011;5573;49.592;8.662;2023-10-31T00:14:03;97.50;;;92.55;;
11039;SDS011;5573;49.592;8.662;2023-10-31T00:16:51;89.68;;;85.18;;
11039;SDS011;5573;49.592;8.662;2023-10-31T00:19:19;96.45;;;91.53;;
11039;SDS011;5573;49.592;8.662;2023-10-31T00:21:46;98.43;;;93.45;;
11039;SDS011;5573;49.592;8.662;2023-10-31T00:24:14;89.55;;;84.97;;
11039;SDS011;5573;49.592;8.662;2023-10-31T00:26:42;94.30;;;89.47;;
11039;SDS011;5573;49.592;8.662;2023-10-31T00:29:11;91.72;;;87.03;;
11039;SDS011;5573;49.592;8.662;2023-10-31T00:31:39;97.38;;;92.32;;
11039;SDS011;5573;49.592;8.662;2023-10-31T00:34:08;87.80;;;83.32;;
11039;SDS011;5573;49.592;8.662;2023-10-31T00:36:36;92.25;;;87.53;;
11039;SDS011;5573;49.592;8.662;2023-10-31T00:39:04;85.03;;;80.68;;
11039;SDS011;5573;49.592;8.662;2023-10-31T00:41:32;90.18;;;85.55;;
11039;SDS011;5573;49.592;8.662;2023-10-31T00:44:01;92.47;;;87.80;;
11039;SDS011;5573;49.592;8.662;2023-10-31T00:46:31;89.55;;;84.95;;
11039;SDS011;5573;49.592;8.662;2023-10-31T00:48:59;88.10;;;83.50;;
11039;SDS011;5573;49.592;8.662;2023-10-31T00:51:27;82.03;;;77.82;;
11039;SDS011;5573;49.592;8.662;2023-10-31T00:53:54;94.78;;;89.90;;
11039;SDS011;5573;49.592;8.662;2023-10-31T00:56:22;81.32;;;77.10;;
11039;SDS011;5573;49.592;8.662;2023-10-31T00:58:50;79.57;;;75.50;;
11039;SDS011;5573;49.592;8.662;2023-10-31T01:01:18;80.05;;;75.95;;
11039;SDS011;5573;49.592;8.662;2023-10-31T01:03:48;80.40;;;76.25;;
11039;SDS011;5573;49.592;8.662;2023-10-31T01:06:15;78.45;;;74.35;;
11039;SDS011;5573;49.592;8.662;2023-10-31T01:08:43;79.45;;;75.30;;
11039;SDS011;5573;49.592;8.662;2023-10-31T01:11:11;75.07;;;71.18;;
11039;SDS011;5573;49.592;8.662;2023-10-31T01:13:39;70.45;;;66.80;;
11039;SDS011;5573;49.592;8.662;2023-10-31T01:16:07;62.50;;;59.22;;
11039;SDS011;5573;49.592;8.662;2023-10-31T01:18:36;64.45;;;61.10;;
11039;SDS011;5573;49.592;8.662;2023-10-31T01:21:05;60.58;;;57.40;;
11039;SDS011;5573;49.592;8.662;2023-10-31T01:23:33;62.67;;;59.45;;
11039;SDS011;5573;49.592;8.662;2023-10-31T01:26:01;58.83;;;55.80;;
11039;SDS011;5573;49.592;8.662;2023-10-31T01:28:28;53.08;;;50.30;;
11039;SDS011;5573;49.592;8.662;2023-10-31T01:30:56;54.35;;;51.55;;
11039;SDS011;5573;49.592;8.662;2023-10-31T01:33:24;58.45;;;55.42;;
11039;SDS011;5573;49.592;8.662;2023-10-31T01:35:52;57.33;;;54.38;;
11039;SDS011;5573;49.592;8.662;2023-10-31T01:38:21;54.85;;;52.00;;
11039;SDS011;5573;49.592;8.662;2023-10-31T01:40:49;59.25;;;56.13;;
11039;SDS011;5573;49.592;8.662;2023-10-31T01:43:28;61.05;;;57.90;;
11039;SDS011;5573;49.592;8.662;2023-10-31T01:45:57;61.03;;;57.90;;
11039;SDS011;5573;49.592;8.662;2023-10-31T01:48:25;67.57;;;64.13;;
11039;SDS011;5573;49.592;8.662;2023-10-31T01:50:58;78.63;;;74.57;;
11039;SDS011;5573;49.592;8.662;2023-10-31T01:53:28;75.90;;;72.03;;
11039;SDS011;5573;49.592;8.662;2023-10-31T01:55:59;82.47;;;78.25;;
11039;SDS011;5573;49.592;8.662;2023-10-31T01:58:29;72.07;;;68.38;;
11039;SDS011;5573;49.592;8.662;2023-10-31T02:00:59;77.35;;;73.35;;
11039;SDS011;5573;49.592;8.662;2023-10-31T02:03:27;76.38;;;72.43;;
11039;SDS011;5573;49.592;8.662;2023-10-31T02:05:56;80.10;;;75.97;;
11039;SDS011;5573;49.592;8.662;2023-10-31T02:08:24;72.63;;;68.90;;
11039;SDS011;5573;49.592;8.662;2023-10-31T02:10:54;74.47;;;70.65;;
11039;SDS011;5573;49.592;8.662;2023-10-31T02:13:22;74.28;;;70.43;;
11039;SDS011;5573;49.592;8.662;2023-10-31T02:15:50;79.38;;;75.20;;
11039;SDS011;5573;49.592;8.662;2023-10-31T02:18:18;85.63;;;81.20;;
11039;SDS011;5573;49.592;8.662;2023-10-31T02:20:46;85.88;;;81.43;;
11039;SDS011;5573;49.592;8.662;2023-10-31T02:23:16;76.45;;;72.55;;
11039;SDS011;5573;49.592;8.662;2023-10-31T02:25:44;82.90;;;78.65;;
11039;SDS011;5573;49.592;8.662;2023-10-31T02:28:12;74.20;;;70.38;;
11039;SDS011;5573;49.592;8.662;2023-10-31T02:30:40;72.65;;;68.93;;
11039;SDS011;5573;49.592;8.662;2023-10-31T02:33:08;76.07;;;72.13;;
11039;SDS011;5573;49.592;8.662;2023-10-31T02:35:36;68.38;;;64.88;;
11039;SDS011;5573;49.592;8.662;2023-10-31T02:38:04;71.20;;;67.55;;
11039;SDS011;5573;49.592;8.662;2023-10-31T02:40:34;73.35;;;69.60;;
11039;SDS011;5573;49.592;8.662;2023-10-31T02:43:03;75.93;;;71.97;;
11039;SDS011;5573;49.592;8.662;2023-10-31T02:45:32;78.32;;;74.35;;
11039;SDS011;5573;49.592;8.662;2023-10-31T02:48:00;73.68;;;69.85;;
11039;SDS011;5573;49.592;8.662;2023-10-31T02:50:28;75.25;;;71.35;;
11039;SDS011;5573;49.592;8.662;2023-10-31T02:52:55;70.80;;;67.15;;
11039;SDS011;5573;49.592;8.662;2023-10-31T02:55:23;75.32;;;71.43;;
11039;SDS011;5573;49.592;8.662;2023-10-31T02:57:53;73.32;;;69.53;;
11039;SDS011;5573;49.592;8.662;2023-10-31T03:00:20;75.22;;;71.32;;
11039;SDS011;5573;49.592;8.662;2023-10-31T03:02:48;66.60;;;63.13;;
11039;SDS011;5573;49.592;8.662;2023-10-31T03:05:16;74.70;;;70.80;;
11039;SDS011;5573;49.592;8.662;2023-10-31T03:07:45;74.45;;;70.65;;
11039;SDS011;5573;49.592;8.662;2023-10-31T03:10:12;72.28;;;68.57;;
11039;SDS011;5573;49.592;8.662;2023-10-31T03:12:40;71.40;;;67.70;;
11039;SDS011;5573;49.592;8.662;2023-10-31T03:15:10;74.65;;;70.75;;
11039;SDS011;5573;49.592;8.662;2023-10-31T03:17:38;79.88;;;75.80;;
11039;SDS011;5573;49.592;8.662;2023-10-31T03:20:06;69.90;;;66.32;;
11039;SDS011;5573;49.592;8.662;2023-10-31T03:22:35;75.70;;;71.80;;
11039;SDS011;5573;49.592;8.662;2023-10-31T03:25:03;75.30;;;71.43;;
11039;SDS011;5573;49.592;8.662;2023-10-31T03:27:32;69.72;;;66.13;;
11039;SDS011;5573;49.592;8.662;2023-10-31T03:30:00;75.60;;;71.72;;
11039;SDS011;5573;49.592;8.662;2023-10-31T03:32:30;67.57;;;64.07;;
11039;SDS011;5573;49.592;8.662;2023-10-31T03:34:57;75.00;;;71.13;;
11039;SDS011;5573;49.592;8.662;2023-10-31T03:37:25;67.97;;;64.47;;
11039;SDS011;5573;49.592;8.662;2023-10-31T03:39:53;65.85;;;62.45;;
11039;SDS011;5573;49.592;8.662;2023-10-31T03:42:21;64.90;;;61.58;;
11039;SDS011;5573;49.592;8.662;2023-10-31T03:44:49;63.17;;;59.90;;
11039;SDS011;5573;49.592;8.662;2023-10-31T03:47:17;64.63;;;61.20;;
11039;SDS011;5573;49.592;8.662;2023-10-31T03:49:46;65.88;;;62.47;;
11039;SDS011;5573;49.592;8.662;2023-10-31T03:52:14;68.57;;;64.93;;
11039;SDS011;5573;49.592;8.662;2023-10-31T03:54:42;67.32;;;63.85;;
11039;SDS011;5573;49.592;8.662;2023-10-31T03:57:09;68.78;;;65.25;;
11039;SDS011;5573;49.592;8.662;2023-10-31T03:59:37;72.65;;;68.93;;
11039;SDS011;5573;49.592;8.662;2023-10-31T04:02:05;70.20;;;66.60;;
11039;SDS011;5573;49.592;8.662;2023-10-31T04:04:33;70.70;;;67.07;;
11039;SDS011;5573;49.592;8.662;2023-10-31T04:07:03;66.40;;;63.03;;
11039;SDS011;5573;49.592;8.662;2023-10-31T04:09:31;64.50;;;61.15;;
11039;SDS011;5573;49.592;8.662;2023-10-31T04:11:59;72.07;;;68.30;;
11039;SDS011;5573;49.592;8.662;2023-10-31T04:14:27;71.47;;;67.78;;
11039;SDS011;5573;49.592;8.662;2023-10-31T04:16:54;72.45;;;68.68;;
11039;SDS011;5573;49.592;8.662;2023-10-31T04:19:22;64.97;;;61.60;;
11039;SDS011;5573;49.592;8.662;2023-10-31T04:21:50;73.93;;;70.15;;
11039;SDS011;5573;49.592;8.662;2023-10-31T04:24:20;71.63;;;67.95;;
11039;SDS011;5573;49.592;8.662;2023-10-31T04:26:48;73.13;;;69.38;;
11039;SDS011;5573;49.592;8.662;2023-10-31T04:29:15;74.93;;;71.05;;
11039;SDS011;5573;49.592;8.662;2023-10-31T04:31:43;73.63;;;69.80;;
11039;SDS011;5573;49.592;8.662;2023-10-31T04:34:11;74.68;;;70.82;;
11039;SDS011;5573;49.592;8.662;2023-10-31T04:36:39;79.97;;;75.90;;
11039;SDS011;5573;49.592;8.662;2023-10-31T04:39:07;68.60;;;65.05;;
11039;SDS011;5573;49.592;8.662;2023-10-31T04:41:37;67.28;;;63.80;;
11039;SDS011;5573;49.592;8.662;2023-10-31T04:44:05;69.05;;;65.45;;
11039;SDS011;5573;49.592;8.662;2023-10-31T04:46:33;71.35;;;67.68;;
11039;SDS011;5573;49.592;8.662;2023-10-31T04:49:01;68.32;;;64.80;;
11039;SDS011;5573;49.592;8.662;2023-10-31T04:51:32;74.30;;;70.47;;
11039;SDS011;5573;49.592;8.662;2023-10-31T04:54:00;67.30;;;63.80;;
11039;SDS011;5573;49.592;8.662;2023-10-31T04:56:28;69.72;;;66.10;;
11039;SDS011;5573;49.592;8.662;2023-10-31T04:58:57;66.72;;;63.30;;
11039;SDS011;5573;49.592;8.662;2023-10-31T05:01:25;71.65;;;67.95;;
11039;SDS011;5573;49.592;8.662;2023-10-31T05:03:53;69.10;;;65.55;;
11039;SDS011;5573;49.592;8.662;2023-10-31T05:06:36;65.78;;;62.35;;
11039;SDS011;5573;49.592;8.662;2023-10-31T05:09:04;67.00;;;63.50;;
11039;SDS011;5573;49.592;8.662;2023-10-31T05:11:33;70.88;;;67.20;;
11039;SDS011;5573;49.592;8.662;2023-10-31T05:14:02;63.30;;;60.00;;
11039;SDS011;5573;49.592;8.662;2023-10-31T05:16:30;65.63;;;62.20;;
11039;SDS011;5573;49.592;8.662;2023-10-31T05:18:57;60.20;;;57.08;;
11039;SDS011;5573;49.592;8.662;2023-10-31T05:21:31;60.72;;;57.55;;
11039;SDS011;5573;49.592;8.662;2023-10-31T05:23:58;55.72;;;52.85;;
11039;SDS011;5573;49.592;8.662;2023-10-31T05:26:26;63.80;;;60.47;;
11039;SDS011;5573;49.592;8.662;2023-10-31T05:28:56;64.43;;;61.08;;
11039;SDS011;5573;49.592;8.662;2023-10-31T05:31:25;58.97;;;55.92;;
11039;SDS011;5573;49.592;8.662;2023-10-31T05:33:53;58.03;;;55.00;;
11039;SDS011;5573;49.592;8.662;2023-10-31T05:36:22;63.40;;;60.10;;
11039;SDS011;5573;49.592;8.662;2023-10-31T05:38:50;63.83;;;60.50;;
11039;SDS011;5573;49.592;8.662;2023-10-31T05:41:18;63.60;;;60.33;;
11039;SDS011;5573;49.592;8.662;2023-10-31T05:43:46;64.38;;;61.10;;
11039;SDS011;5573;49.592;8.662;2023-10-31T05:46:14;68.90;;;65.32;;
11039;SDS011;5573;49.592;8.662;2023-10-31T05:48:45;61.25;;;58.08;;
11039;SDS011;5573;49.592;8.662;2023-10-31T05:51:14;70.32;;;66.65;;
11039;SDS011;5573;49.592;8.662;2023-10-31T05:53:43;65.93;;;62.50;;
11039;SDS011;5573;49.592;8.662;2023-10-31T05:56:12;63.30;;;60.03;;
11039;SDS011;5573;49.592;8.662;2023-10-31T05:58:41;61.35;;;58.15;;
11039;SDS011;5573;49.592;8.662;2023-10-31T06:01:09;65.57;;;62.08;;
11039;SDS011;5573;49.592;8.662;2023-10-31T06:03:37;60.33;;;57.20;;
11039;SDS011;5573;49.592;8.662;2023-10-31T06:06:07;62.97;;;59.75;;
11039;SDS011;5573;49.592;8.662;2023-10-31T06:08:35;55.38;;;52.50;;
11039;SDS011;5573;49.592;8.662;2023-10-31T06:11:03;60.78;;;57.50;;
11039;SDS011;5573;49.592;8.662;2023-10-31T06:13:31;59.40;;;56.30;;
11039;SDS011;5573;49.592;8.662;2023-10-31T06:16:00;55.13;;;52.22;;
11039;SDS011;5573;49.592;8.662;2023-10-31T06:18:28;51.97;;;49.28;;
11039;SDS011;5573;49.592;8.662;2023-10-31T06:20:56;55.70;;;52.80;;
11039;SDS011;5573;49.592;8.662;2023-10-31T06:23:25;55.10;;;52.20;;
11039;SDS011;5573;49.592;8.662;2023-10-31T06:25:57;55.38;;;52.47;;
11039;SDS011;5573;49.592;8.662;2023-10-31T06:28:25;58.33;;;55.33;;
11039;SDS011;5573;49.592;8.662;2023-10-31T06:30:53;59.13;;;56.03;;
11039;SDS011;5573;49.592;8.662;2023-10-31T06:33:21;61.42;;;58.13;;
11039;SDS011;5573;49.592;8.662;2023-10-31T06:35:49;58.50;;;55.47;;
11039;SDS011;5573;49.592;8.662;2023-10-31T06:38:18;56.92;;;53.97;;
11039;SDS011;5573;49.592;8.662;2023-10-31T06:40:47;53.25;;;50.50;;
11039;SDS011;5573;49.592;8.662;2023-10-31T06:43:15;54.83;;;51.97;;
11039;SDS011;5573;49.592;8.662;2023-10-31T06:45:43;56.65;;;53.67;;
11039;SDS011;5573;49.592;8.662;2023-10-31T06:48:11;55.13;;;52.25;;
11039;SDS011;5573;49.592;8.662;2023-10-31T06:50:39;56.72;;;53.78;;
11039;SDS011;5573;49.592;8.662;2023-10-31T06:53:07;60.38;;;57.28;;
11039;SDS011;5573;49.592;8.662;2023-10-31T06:55:35;60.83;;;57.65;;
11039;SDS011;5573;49.592;8.662;2023-10-31T06:58:04;54.80;;;51.92;;
11039;SDS011;5573;49.592;8.662;2023-10-31T07:00:32;55.45;;;52.55;;
11039;SDS011;5573;49.592;8.662;2023-10-31T07:03:00;53.88;;;51.10;;
11039;SDS011;5573;49.592;8.662;2023-10-31T07:05:32;54.50;;;51.70;;
11039;SDS011;5573;49.592;8.662;2023-10-31T07:08:01;56.97;;;54.00;;
11039;SDS011;5573;49.592;8.662;2023-10-31T07:10:29;55.33;;;52.45;;
11039;SDS011;5573;49.592;8.662;2023-10-31T07:12:57;55.00;;;52.17;;
11039;SDS011;5573;49.592;8.662;2023-10-31T07:15:27;49.45;;;46.90;;
11039;SDS011;5573;49.592;8.662;2023-10-31T07:17:54;59.17;;;56.13;;
11039;SDS011;5573;49.592;8.662;2023-10-31T07:20:23;58.03;;;55.00;;
11039;SDS011;5573;49.592;8.662;2023-10-31T07:22:51;49.88;;;47.30;;
11039;SDS011;5573;49.592;8.662;2023-10-31T07:25:19;51.92;;;49.25;;
11039;SDS011;5573;49.592;8.662;2023-10-31T07:27:47;51.35;;;48.65;;
11039;SDS011;5573;49.592;8.662;2023-10-31T07:30:15;48.97;;;46.47;;
11039;SDS011;5573;49.592;8.662;2023-10-31T07:32:44;52.42;;;49.72;;
11039;SDS011;5573;49.592;8.662;2023-10-31T07:35:12;47.38;;;44.92;;
11039;SDS011;5573;49.592;8.662;2023-10-31T07:37:40;52.88;;;50.13;;
11039;SDS011;5573;49.592;8.662;2023-10-31T07:40:08;47.47;;;45.00;;
11039;SDS011;5573;49.592;8.662;2023-10-31T07:42:36;49.47;;;46.90;;
11039;SDS011;5573;49.592;8.662;2023-10-31T07:45:05;43.78;;;41.53;;
11039;SDS011;5573;49.592;8.662;2023-10-31T07:47:33;48.17;;;45.65;;
11039;SDS011;5573;49.592;8.662;2023-10-31T07:50:02;49.72;;;47.13;;
11039;SDS011;5573;49.592;8.662;2023-10-31T07:52:30;47.42;;;45.00;;
11039;SDS011;5573;49.592;8.662;2023-10-31T07:54:58;51.53;;;48.83;;
11039;SDS011;5573;49.592;8.662;2023-10-31T07:57:26;49.50;;;46.97;;
11039;SDS011;5573;49.592;8.662;2023-10-31T07:59:54;56.05;;;53.15;;
11039;SDS011;5573;49.592;8.662;2023-10-31T08:02:22;49.97;;;47.40;;
11039;SDS011;5573;49.592;8.662;2023-10-31T08:04:50;54.00;;;51.20;;
11039;SDS011;5573;49.592;8.662;2023-10-31T08:07:19;52.03;;;49.33;;
11039;SDS011;5573;49.592;8.662;2023-10-31T08:09:47;55.22;;;52.40;;
11039;SDS011;5573;49.592;8.662;2023-10-31T08:12:14;57.58;;;54.60;;
11039;SDS011;5573;49.592;8.662;2023-10-31T08:14:42;57.72;;;54.78;;
11039;SDS011;5573;49.592;8.662;2023-10-31T08:17:10;55.28;;;52.47;;
11039;SDS011;5573;49.592;8.662;2023-10-31T08:19:38;58.40;;;55.33;;
11039;SDS011;5573;49.592;8.662;2023-10-31T08:22:05;48.50;;;46.00;;
11039;SDS011;5573;49.592;8.662;2023-10-31T08:24:34;60.75;;;57.55;;
11039;SDS011;5573;49.592;8.662;2023-10-31T08:27:04;59.30;;;56.28;;
11039;SDS011;5573;49.592;8.662;2023-10-31T08:29:32;57.63;;;54.65;;
11039;SDS011;5573;49.592;8.662;2023-10-31T08:32:00;61.25;;;58.08;;
11039;SDS011;5573;49.592;8.662;2023-10-31T08:34:27;60.78;;;57.65;;
11039;SDS011;5573;49.592;8.662;2023-10-31T08:36:55;61.95;;;58.75;;
11039;SDS011;5573;49.592;8.662;2023-10-31T08:39:25;58.35;;;55.33;;
11039;SDS011;5573;49.592;8.662;2023-10-31T08:41:55;61.75;;;58.58;;
11039;SDS011;5573;49.592;8.662;2023-10-31T08:44:24;61.72;;;58.58;;
11039;SDS011;5573;49.592;8.662;2023-10-31T08:46:52;66.93;;;63.28;;
11039;SDS011;5573;49.592;8.662;2023-10-31T08:49:20;65.40;;;62.00;;
11039;SDS011;5573;49.592;8.662;2023-10-31T08:51:48;62.55;;;59.30;;
11039;SDS011;5573;49.592;8.662;2023-10-31T08:54:16;67.78;;;64.28;;
11039;SDS011;5573;49.592;8.662;2023-10-31T08:56:44;64.90;;;61.53;;
11039;SDS011;5573;49.592;8.662;2023-10-31T08:59:13;68.25;;;64.68;;
11039;SDS011;5573;49.592;8.662;2023-10-31T09:01:41;64.53;;;61.20;;
11039;SDS011;5573;49.592;8.662;2023-10-31T09:04:08;65.45;;;62.08;;
11039;SDS011;5573;49.592;8.662;2023-10-31T09:06:36;69.38;;;65.80;;
11039;SDS011;5573;49.592;8.662;2023-10-31T09:09:05;67.07;;;63.63;;
11039;SDS011;5573;49.592;8.662;2023-10-31T09:11:32;68.70;;;65.15;;
11039;SDS011;5573;49.592;8.662;2023-10-31T09:14:00;65.63;;;62.22;;
11039;SDS011;5573;49.592;8.662;2023-10-31T09:16:29;63.13;;;59.83;;
11039;SDS011;5573;49.592;8.662;2023-10-31T09:18:57;63.85;;;60.55;;
11039;SDS011;5573;49.592;8.662;2023-10-31T09:21:25;66.40;;;62.92;;
11039;SDS011;5573;49.592;8.662;2023-10-31T09:23:53;69.97;;;66.38;;
11039;SDS011;5573;49.592;8.662;2023-10-31T09:26:21;68.10;;;64.55;;
11039;SDS011;5573;49.592;8.662;2023-10-31T09:28:49;65.90;;;62.47;;
11039;SDS011;5573;49.592;8.662;2023-10-31T09:31:17;75.15;;;71.30;;
11039;SDS011;5573;49.592;8.662;2023-10-31T09:33:46;75.63;;;71.75;;
11039;SDS011;5573;49.592;8.662;2023-10-31T09:36:14;69.20;;;65.65;;
11039;SDS011;5573;49.592;8.662;2023-10-31T09:38:42;72.00;;;68.30;;
11039;SDS011;5573;49.592;8.662;2023-10-31T09:41:11;66.85;;;63.38;;
11039;SDS011;5573;49.592;8.662;2023-10-31T09:43:40;66.75;;;63.25;;
11039;SDS011;5573;49.592;8.662;2023-10-31T09:46:08;62.67;;;59.33;;
11039;SDS011;5573;49.592;8.662;2023-10-31T09:48:37;61.92;;;58.67;;
11039;SDS011;5573;49.592;8.662;2023-10-31T09:51:08;69.60;;;65.97;;
11039;SDS011;5573;49.592;8.662;2023-10-31T09:53:37;67.47;;;64.00;;
11039;SDS011;5573;49.592;8.662;2023-10-31T09:56:06;72.45;;;68.72;;
11039;SDS011;5573;49.592;8.662;2023-10-31T09:58:35;71.75;;;67.90;;
11039;SDS011;5573;49.592;8.662;2023-10-31T10:01:03;71.82;;;68.10;;
11039;SDS011;5573;49.592;8.662;2023-10-31T10:03:31;68.18;;;64.65;;
11039;SDS011;5573;49.592;8.662;2023-10-31T10:06:01;77.43;;;73.47;;
11039;SDS011;5573;49.592;8.662;2023-10-31T10:08:31;72.45;;;68.72;;
11039;SDS011;5573;49.592;8.662;2023-10-31T10:10:59;77.13;;;73.18;;
11039;SDS011;5573;49.592;8.662;2023-10-31T10:13:27;84.32;;;80.03;;
11039;SDS011;5573;49.592;8.662;2023-10-31T10:15:55;87.25;;;82.80;;
11039;SDS011;5573;49.592;8.662;2023-10-31T10:18:26;89.20;;;84.65;;
11039;SDS011;5573;49.592;8.662;2023-10-31T10:20:55;90.97;;;86.32;;
11039;SDS011;5573;49.592;8.662;2023-10-31T10:23:24;91.10;;;86.47;;
11039;SDS011;5573;49.592;8.662;2023-10-31T10:25:54;96.95;;;92.00;;
11039;SDS011;5573;49.592;8.662;2023-10-31T10:28:23;86.47;;;82.05;;
11039;SDS011;5573;49.592;8.662;2023-10-31T10:30:51;95.68;;;90.78;;
11039;SDS011;5573;49.592;8.662;2023-10-31T10:33:20;94.47;;;89.63;;
11039;SDS011;5573;49.592;8.662;2023-10-31T10:35:48;97.15;;;92.18;;
11039;SDS011;5573;49.592;8.662;2023-10-31T10:38:17;97.50;;;92.53;;
11039;SDS011;5573;49.592;8.662;2023-10-31T10:40:46;107.45;;;101.97;;
11039;SDS011;5573;49.592;8.662;2023-10-31T10:43:19;94.00;;;89.25;;
11039;SDS011;5573;49.592;8.662;2023-10-31T10:45:51;96.07;;;91.18;;
11039;SDS011;5573;49.592;8.662;2023-10-31T10:48:22;92.07;;;87.40;;
11039;SDS011;5573;49.592;8.662;2023-10-31T10:51:00;101.38;;;95.95;;
11039;SDS011;5573;49.592;8.662;2023-10-31T10:53:34;98.32;;;93.25;;
11039;SDS011;5573;49.592;8.662;2023-10-31T10:56:09;97.20;;;92.25;;
11039;SDS011;5573;49.592;8.662;2023-10-31T10:58:49;92.25;;;87.53;;
11039;SDS011;5573;49.592;8.662;2023-10-31T11:01:19;91.20;;;86.53;;
11039;SDS011;5573;49.592;8.662;2023-10-31T11:03:47;97.43;;;92.45;;
11039;SDS011;5573;49.592;8.662;2023-10-31T11:06:16;98.80;;;93.70;;
11039;SDS011;5573;49.592;8.662;2023-10-31T11:08:44;94.75;;;89.80;;
11039;SDS011;5573;49.592;8.662;2023-10-31T11:11:13;89.43;;;84.75;;
11039;SDS011;5573;49.592;8.662;2023-10-31T11:13:42;93.13;;;88.25;;
11039;SDS011;5573;49.592;8.662;2023-10-31T11:16:13;95.00;;;90.00;;
11039;SDS011;5573;49.592;8.662;2023-10-31T11:18:45;86.75;;;82.22;;
11039;SDS011;5573;49.592;8.662;2023-10-31T11:21:14;93.13;;;88.25;;
11039;SDS011;5573;49.592;8.662;2023-10-31T11:23:42;92.72;;;87.90;;
11039;SDS011;5573;49.592;8.662;2023-10-31T11:26:09;97.53;;;92.45;;
11039;SDS011;5573;49.592;8.662;2023-10-31T11:28:37;96.82;;;91.88;;
11039;SDS011;5573;49.592;8.662;2023-10-31T11:31:05;87.35;;;82.82;;
11039;SDS011;5573;49.592;8.662;2023-10-31T11:33:39;93.40;;;88.63;;
11039;SDS011;5573;49.592;8.662;2023-10-31T11:36:09;103.32;;;97.93;;
11039;SDS011;5573;49.592;8.662;2023-10-31T11:38:38;101.13;;;95.93;;
11039;SDS011;5573;49.592;8.662;2023-10-31T11:41:06;94.97;;;90.10;;
11039;SDS011;5573;49.592;8.662;2023-10-31T11:43:36;95.82;;;90.93;;
11039;SDS011;5573;49.592;8.662;2023-10-31T11:46:18;97.20;;;92.28;;
11039;SDS011;5573;49.592;8.662;2023-10-31T11:48:50;95.53;;;90.55;;
11039;SDS011;5573;49.592;8.662;2023-10-31T11:51:21;102.47;;;97.25;;
11039;SDS011;5573;49.592;8.662;2023-10-31T11:53:50;94.10;;;89.25;;
11039;SDS011;5573;49.592;8.662;2023-10-31T11:56:18;107.55;;;102.00;;
11039;SDS011;5573;49.592;8.662;2023-10-31T11:58:54;97.05;;;92.07;;
11039;SDS011;5573;49.592;8.662;2023-10-31T12:01:22;93.35;;;88.55;;
11039;SDS011;5573;49.592;8.662;2023-10-31T12:03:51;97.35;;;92.35;;
11039;SDS011;5573;49.592;8.662;2023-10-31T12:06:20;85.53;;;81.10;;
11039;SDS011;5573;49.592;8.662;2023-10-31T12:08:48;90.78;;;86.05;;
11039;SDS011;5573;49.592;8.662;2023-10-31T12:11:16;91.18;;;86.43;;
11039;SDS011;5573;49.592;8.662;2023-10-31T12:13:53;89.18;;;84.60;;
11039;SDS011;5573;49.592;8.662;2023-10-31T12:16:23;90.28;;;85.55;;
11039;SDS011;5573;49.592;8.662;2023-10-31T12:18:57;88.00;;;83.40;;
11039;SDS011;5573;49.592;8.662;2023-10-31T12:21:35;86.55;;;82.07;;
11039;SDS011;5573;49.592;8.662;2023-10-31T12:24:05;88.15;;;83.65;;
11039;SDS011;5573;49.592;8.662;2023-10-31T12:26:33;91.72;;;87.05;;
11039;SDS011;5573;49.592;8.662;2023-10-31T12:29:08;89.20;;;84.57;;
11039;SDS011;5573;49.592;8.662;2023-10-31T12:31:41;89.68;;;85.05;;
11039;SDS011;5573;49.592;8.662;2023-10-31T12:34:11;88.47;;;84.00;;
11039;SDS011;5573;49.592;8.662;2023-10-31T12:36:40;91.03;;;86.35;;
11039;SDS011;5573;49.592;8.662;2023-10-31T12:39:09;95.40;;;90.50;;
11039;SDS011;5573;49.592;8.662;2023-10-31T12:41:39;91.65;;;86.93;;
11039;SDS011;5573;49.592;8.662;2023-10-31T12:44:08;86.00;;;81.60;;
11039;SDS011;5573;49.592;8.662;2023-10-31T12:46:38;73.72;;;69.97;;
11039;SDS011;5573;49.592;8.662;2023-10-31T12:49:12;69.57;;;66.00;;
11039;SDS011;5573;49.592;8.662;2023-10-31T12:51:57;68.90;;;65.32;;
11039;SDS011;5573;49.592;8.662;2023-10-31T12:54:29;70.10;;;66.47;;
11039;SDS011;5573;49.592;8.662;2023-10-31T12:56:58;74.55;;;70.72;;
11039;SDS011;5573;49.592;8.662;2023-10-31T12:59:27;68.97;;;65.38;;
11039;SDS011;5573;49.592;8.662;2023-10-31T13:01:55;71.70;;;67.97;;
11039;SDS011;5573;49.592;8.662;2023-10-31T13:04:25;64.40;;;61.10;;
11039;SDS011;5573;49.592;8.662;2023-10-31T13:06:55;66.63;;;63.17;;
11039;SDS011;5573;49.592;8.662;2023-10-31T13:09:27;70.80;;;67.18;;
11039;SDS011;5573;49.592;8.662;2023-10-31T13:11:57;65.03;;;61.58;;
11039;SDS011;5573;49.592;8.662;2023-10-31T13:14:25;65.00;;;61.65;;
11039;SDS011;5573;49.592;8.662;2023-10-31T13:16:53;62.88;;;59.63;;
11039;SDS011;5573;49.592;8.662;2023-10-31T13:19:21;70.10;;;66.45;;
11039;SDS011;5573;49.592;8.662;2023-10-31T13:21:50;71.18;;;67.55;;
11039;SDS011;5573;49.592;8.662;2023-10-31T13:24:18;71.53;;;67.82;;
11039;SDS011;5573;49.592;8.662;2023-10-31T13:26:46;67.28;;;63.83;;
11039;SDS011;5573;49.592;8.662;2023-10-31T13:29:18;65.72;;;62.33;;
11039;SDS011;5573;49.592;8.662;2023-10-31T13:31:47;71.38;;;67.65;;
11039;SDS011;5573;49.592;8.662;2023-10-31T13:34:14;65.53;;;62.17;;
11039;SDS011;5573;49.592;8.662;2023-10-31T13:36:42;70.68;;;67.07;;
11039;SDS011;5573;49.592;8.662;2023-10-31T13:39:12;72.22;;;68.50;;
11039;SDS011;5573;49.592;8.662;2023-10-31T13:41:39;68.65;;;65.15;;
11039;SDS011;5573;49.592;8.662;2023-10-31T13:44:07;74.65;;;70.80;;
11039;SDS011;5573;49.592;8.662;2023-10-31T13:46:35;70.30;;;66.50;;
11039;SDS011;5573;49.592;8.662;2023-10-31T13:49:03;68.97;;;65.35;;
11039;SDS011;5573;49.592;8.662;2023-10-31T13:51:33;75.88;;;71.72;;
11039;SDS011;5573;49.592;8.662;2023-10-31T13:54:01;71.55;;;67.68;;
11039;SDS011;5573;49.592;8.662;2023-10-31T13:56:30;67.85;;;64.35;;
11039;SDS011;5573;49.592;8.662;2023-10-31T13:59:01;64.35;;;61.03;;
11039;SDS011;5573;49.592;8.662;2023-10-31T14:01:29;74.93;;;71.07;;
11039;SDS011;5573;49.592;8.662;2023-10-31T14:03:57;64.35;;;61.05;;
11039;SDS011;5573;49.592;8.662;2023-10-31T14:06:25;66.38;;;62.95;;
11039;SDS011;5573;49.592;8.662;2023-10-31T14:08:57;68.68;;;65.18;;
11039;SDS011;5573;49.592;8.662;2023-10-31T14:11:25;59.25;;;56.17;;
11039;SDS011;5573;49.592;8.662;2023-10-31T14:13:54;67.35;;;63.92;;
11039;SDS011;5573;49.592;8.662;2023-10-31T14:16:26;67.13;;;63.67;;
11039;SDS011;5573;49.592;8.662;2023-10-31T14:18:53;67.43;;;63.92;;
11039;SDS011;5573;49.592;8.662;2023-10-31T14:21:21;71.00;;;67.25;;
11039;SDS011;5573;49.592;8.662;2023-10-31T14:23:49;66.88;;;63.45;;
11039;SDS011;5573;49.592;8.662;2023-10-31T14:26:27;71.35;;;67.68;;
11039;SDS011;5573;49.592;8.662;2023-10-31T14:28:56;65.78;;;62.35;;
11039;SDS011;5573;49.592;8.662;2023-10-31T14:31:24;69.20;;;65.63;;
11039;SDS011;5573;49.592;8.662;2023-10-31T14:33:52;64.38;;;61.00;;
11039;SDS011;5573;49.592;8.662;2023-10-31T14:36:19;67.13;;;63.63;;
11039;SDS011;5573;49.592;8.662;2023-10-31T14:38:47;64.57;;;61.25;;
11039;SDS011;5573;49.592;8.662;2023-10-31T14:41:15;68.47;;;64.85;;
11039;SDS011;5573;49.592;8.662;2023-10-31T14:43:43;68.95;;;65.40;;